Time;durP1;ratioP1;P1;durP2;ratioP2;P2;SDS_P1;SDS_P2;PMS_P1;PMS_P2;Temp;Humidity;BMP_temperature;BMP_pressure;BME280_temperature;BME280_humidity;BME280_pressure;Samples;Min_cycle;Max_cycle;Signal;HPM_P1;HPM_P2
2022/07/04 00:00:56;;;;;;;6.47;2.00;;;;;;;;;;6129644;23;20474;-81
2022/07/04 00:03:23;;;;;;;5.95;1.98;;;;;;;;;;6130275;23;20041;-80
2022/07/04 00:05:50;;;;;;;10.52;2.28;;;;;;;;;;6129853;23;20026;-80
2022/07/04 00:08:17;;;;;;;4.85;2.25;;;;;;;;;;6129825;23;20717;-79
2022/07/04 00:10:47;;;;;;;7.53;2.15;;;;;;;;;;6129082;23;20030;-80
2022/07/04 00:13:14;;;;;;;4.10;2.08;;;;;;;;;;6129585;23;20021;-79
2022/07/04 00:15:41;;;;;;;6.25;2.35;;;;;;;;;;6129927;23;20027;-80
2022/07/04 00:18:08;;;;;;;4.85;2.13;;;;;;;;;;6130443;23;20843;-80
2022/07/04 00:20:35;;;;;;;8.77;2.30;;;;;;;;;;6129855;23;20022;-80
2022/07/04 00:23:02;;;;;;;3.83;2.13;;;;;;;;;;6129685;23;20858;-81
2022/07/04 00:25:29;;;;;;;5.78;2.20;;;;;;;;;;6128863;23;20790;-80
2022/07/04 00:27:56;;;;;;;7.38;2.63;;;;;;;;;;6129991;23;20022;-80
2022/07/04 00:30:23;;;;;;;3.65;2.15;;;;;;;;;;6129365;23;20026;-80
2022/07/04 00:32:50;;;;;;;4.57;2.20;;;;;;;;;;6129333;23;20030;-80
2022/07/04 00:35:18;;;;;;;6.57;2.40;;;;;;;;;;6129452;23;20022;-80
2022/07/04 00:37:47;;;;;;;7.10;2.67;;;;;;;;;;6129472;23;20117;-79
2022/07/04 00:40:14;;;;;;;10.70;2.90;;;;;;;;;;6129739;23;20054;-80
2022/07/04 00:42:42;;;;;;;5.07;2.40;;;;;;;;;;6129308;23;20033;-80
2022/07/04 00:45:12;;;;;;;5.10;2.47;;;;;;;;;;6129319;23;20031;-80
2022/07/04 00:47:42;;;;;;;4.65;2.05;;;;;;;;;;6129627;23;20011;-80
2022/07/04 00:50:09;;;;;;;5.78;1.92;;;;;;;;;;6128927;23;20027;-79
2022/07/04 00:52:36;;;;;;;5.45;2.30;;;;;;;;;;6129624;23;20708;-80
2022/07/04 00:55:04;;;;;;;3.63;2.00;;;;;;;;;;6128455;23;20026;-81
2022/07/04 00:57:31;;;;;;;2.28;1.70;;;;;;;;;;6129689;23;20061;-81
2022/07/04 00:59:58;;;;;;;4.03;2.08;;;;;;;;;;6127678;23;20105;-79
2022/07/04 01:02:25;;;;;;;3.08;1.80;;;;;;;;;;6128601;23;20054;-80
2022/07/04 01:04:52;;;;;;;3.95;1.40;;;;;;;;;;6130469;23;20031;-79
2022/07/04 01:07:21;;;;;;;9.27;1.63;;;;;;;;;;6130098;23;20595;-80
2022/07/04 01:09:48;;;;;;;5.57;1.80;;;;;;;;;;6130255;23;20023;-79
2022/07/04 01:12:25;;;;;;;3.33;1.98;;;;;;;;;;6130091;23;20034;-80
2022/07/04 01:14:52;;;;;;;2.40;1.60;;;;;;;;;;6129461;23;20033;-79
2022/07/04 01:17:19;;;;;;;3.55;1.65;;;;;;;;;;6129994;23;20046;-80
2022/07/04 01:19:46;;;;;;;3.85;1.67;;;;;;;;;;6130835;23;20563;-80
2022/07/04 01:22:13;;;;;;;3.83;1.60;;;;;;;;;;6129382;23;20026;-81
2022/07/04 01:24:41;;;;;;;2.03;1.58;;;;;;;;;;6129691;23;20022;-79
2022/07/04 01:27:09;;;;;;;4.47;1.80;;;;;;;;;;6128762;23;20700;-80
2022/07/04 01:29:36;;;;;;;3.15;1.90;;;;;;;;;;6128869;23;20018;-79
2022/07/04 01:32:04;;;;;;;4.35;2.00;;;;;;;;;;6152601;23;20641;-79
2022/07/04 01:34:31;;;;;;;5.78;1.70;;;;;;;;;;6129333;23;20026;-80
2022/07/04 01:37:02;;;;;;;6.15;2.20;;;;;;;;;;6129501;23;20029;-80
2022/07/04 01:39:29;;;;;;;4.25;1.90;;;;;;;;;;6131438;23;20023;-80
2022/07/04 01:41:56;;;;;;;6.38;2.22;;;;;;;;;;6128814;23;20011;-79
2022/07/04 01:44:23;;;;;;;4.68;1.95;;;;;;;;;;6129772;23;20026;-80
2022/07/04 01:46:50;;;;;;;3.60;1.75;;;;;;;;;;6130423;23;20726;-79
2022/07/04 01:49:17;;;;;;;4.28;2.20;;;;;;;;;;6131233;23;20027;-80
2022/07/04 01:51:49;;;;;;;6.03;2.38;;;;;;;;;;6131133;23;20534;-79
2022/07/04 01:54:16;;;;;;;4.18;2.30;;;;;;;;;;6132660;23;20019;-80
2022/07/04 01:56:43;;;;;;;7.10;2.45;;;;;;;;;;6132005;23;20031;-80
2022/07/04 01:59:10;;;;;;;6.80;2.60;;;;;;;;;;6130452;23;20014;-80
2022/07/04 02:01:38;;;;;;;7.78;2.70;;;;;;;;;;6131332;23;20031;-80
2022/07/04 02:04:06;;;;;;;6.53;2.78;;;;;;;;;;6131259;23;20014;-80
2022/07/04 02:06:33;;;;;;;6.30;3.00;;;;;;;;;;6132874;23;20054;-80
2022/07/04 02:09:15;;;;;;;5.97;2.88;;;;;;;;;;6133400;23;20101;-79
2022/07/04 02:14:33;;;;;;;7.38;3.10;;;;;;;;;;6132219;23;20026;-79
2022/07/04 02:17:00;;;;;;;6.43;3.60;;;;;;;;;;6131193;23;20126;-81
2022/07/04 02:19:28;;;;;;;7.72;3.63;;;;;;;;;;6131024;23;20074;-80
2022/07/04 02:21:57;;;;;;;5.88;3.67;;;;;;;;;;6129611;23;20117;-80
2022/07/04 02:24:25;;;;;;;5.20;3.00;;;;;;;;;;6131066;23;20022;-79
2022/07/04 02:26:53;;;;;;;8.98;3.50;;;;;;;;;;6130907;23;20069;-80
2022/07/04 02:29:20;;;;;;;5.63;2.60;;;;;;;;;;6130347;23;20810;-79
2022/07/04 02:31:47;;;;;;;14.70;3.15;;;;;;;;;;6130995;23;20122;-80
2022/07/04 02:34:14;;;;;;;6.07;2.92;;;;;;;;;;6130729;23;20662;-80
2022/07/04 02:36:41;;;;;;;4.60;2.80;;;;;;;;;;6131266;23;20026;-80
2022/07/04 02:39:08;;;;;;;7.63;3.10;;;;;;;;;;6130610;23;20460;-79
2022/07/04 02:41:35;;;;;;;7.40;3.15;;;;;;;;;;6132269;23;20033;-79
2022/07/04 02:44:02;;;;;;;6.40;2.90;;;;;;;;;;6131696;23;20034;-80
2022/07/04 02:46:32;;;;;;;8.50;2.70;;;;;;;;;;6131007;23;20867;-79
2022/07/04 02:49:00;;;;;;;7.13;3.30;;;;;;;;;;6130401;23;20065;-79
2022/07/04 02:51:27;;;;;;;7.22;2.90;;;;;;;;;;6131251;23;20122;-82
2022/07/04 02:53:55;;;;;;;6.45;3.33;;;;;;;;;;6130693;23;20129;-80
2022/07/04 02:56:22;;;;;;;6.40;3.22;;;;;;;;;;6131040;23;20018;-79
2022/07/04 02:58:49;;;;;;;6.95;3.00;;;;;;;;;;6129842;23;20055;-83
2022/07/04 03:01:19;;;;;;;5.60;2.85;;;;;;;;;;6130669;23;20057;-79
2022/07/04 03:03:46;;;;;;;7.97;3.60;;;;;;;;;;6130236;23;20022;-80
2022/07/04 03:06:13;;;;;;;8.43;3.58;;;;;;;;;;6129966;23;20019;-79
2022/07/04 03:08:41;;;;;;;8.80;4.05;;;;;;;;;;6130899;23;20036;-80
2022/07/04 03:11:10;;;;;;;9.65;3.53;;;;;;;;;;6130137;23;20026;-79
2022/07/04 03:13:37;;;;;;;6.82;3.05;;;;;;;;;;6128651;23;20826;-79
2022/07/04 03:16:04;;;;;;;7.63;3.25;;;;;;;;;;6130834;23;20023;-79
2022/07/04 03:18:31;;;;;;;6.32;3.67;;;;;;;;;;6130517;23;20033;-80
2022/07/04 03:20:58;;;;;;;11.40;4.07;;;;;;;;;;6129309;23;20033;-80
2022/07/04 03:23:26;;;;;;;7.13;4.03;;;;;;;;;;6130699;23;20054;-80
2022/07/04 03:25:54;;;;;;;16.55;5.00;;;;;;;;;;6130514;23;20045;-79
2022/07/04 03:28:21;;;;;;;8.45;4.15;;;;;;;;;;6131103;23;20464;-80
2022/07/04 03:30:48;;;;;;;12.27;3.72;;;;;;;;;;6130188;23;20031;-79
2022/07/04 03:33:15;;;;;;;9.88;4.03;;;;;;;;;;6130539;23;20484;-83
2022/07/04 03:35:42;;;;;;;8.43;4.07;;;;;;;;;;6131102;23;20018;-79
2022/07/04 03:38:09;;;;;;;12.43;4.53;;;;;;;;;;6130893;23;20801;-80
2022/07/04 03:40:38;;;;;;;7.65;3.95;;;;;;;;;;6130129;23;20358;-80
2022/07/04 03:43:06;;;;;;;8.18;3.88;;;;;;;;;;6129937;23;20027;-81
2022/07/04 03:45:33;;;;;;;7.65;3.40;;;;;;;;;;6129986;23;20025;-80
2022/07/04 03:48:03;;;;;;;9.48;3.42;;;;;;;;;;6130561;23;20022;-79
2022/07/04 03:50:30;;;;;;;7.80;3.58;;;;;;;;;;6130711;23;20482;-80
2022/07/04 03:52:57;;;;;;;8.77;3.35;;;;;;;;;;6130968;23;20188;-80
2022/07/04 03:55:27;;;;;;;9.95;3.97;;;;;;;;;;6130651;23;20098;-79
2022/07/04 03:57:54;;;;;;;7.45;3.60;;;;;;;;;;6129453;23;20805;-79
2022/07/04 04:00:21;;;;;;;7.70;3.65;;;;;;;;;;6129979;23;20772;-79
2022/07/04 04:02:48;;;;;;;9.45;3.97;;;;;;;;;;6129589;23;20316;-79
2022/07/04 04:05:30;;;;;;;11.95;5.18;;;;;;;;;;6130343;23;20023;-79
2022/07/04 04:07:58;;;;;;;14.10;5.90;;;;;;;;;;6129793;23;20066;-79
2022/07/04 04:10:25;;;;;;;14.15;6.13;;;;;;;;;;6129571;23;20037;-80
2022/07/04 04:12:52;;;;;;;12.95;6.13;;;;;;;;;;6129969;23;20050;-79
2022/07/04 04:15:19;;;;;;;12.82;6.03;;;;;;;;;;6130522;23;20709;-79
2022/07/04 04:17:47;;;;;;;11.68;5.85;;;;;;;;;;6130217;23;20086;-80
2022/07/04 04:20:14;;;;;;;10.05;6.63;;;;;;;;;;6129760;23;20838;-79
2022/07/04 04:22:41;;;;;;;9.98;6.25;;;;;;;;;;6129233;23;20028;-80
2022/07/04 04:25:08;;;;;;;11.52;6.50;;;;;;;;;;6130098;23;20046;-79
2022/07/04 04:27:35;;;;;;;13.88;6.78;;;;;;;;;;6129826;23;20026;-79
2022/07/04 04:30:03;;;;;;;11.65;6.65;;;;;;;;;;6130218;23;20089;-79
2022/07/04 04:32:30;;;;;;;11.35;6.45;;;;;;;;;;6130123;23;20026;-80
2022/07/04 04:34:58;;;;;;;14.93;6.90;;;;;;;;;;6129684;23;20054;-80
2022/07/04 04:37:26;;;;;;;16.13;7.60;;;;;;;;;;6129263;23;20097;-79
2022/07/04 04:39:53;;;;;;;12.73;6.40;;;;;;;;;;6130027;23;20488;-80
2022/07/04 04:42:23;;;;;;;14.23;7.35;;;;;;;;;;6129608;23;20479;-81
2022/07/04 04:44:51;;;;;;;12.40;7.40;;;;;;;;;;6129035;23;20463;-79
2022/07/04 04:47:19;;;;;;;14.45;7.05;;;;;;;;;;6127274;23;20437;-80
2022/07/04 04:49:48;;;;;;;11.93;7.13;;;;;;;;;;6128667;23;20452;-79
2022/07/04 04:52:15;;;;;;;17.65;7.28;;;;;;;;;;6133255;23;20022;-79
2022/07/04 04:54:43;;;;;;;15.45;7.60;;;;;;;;;;6128786;23;20082;-80
2022/07/04 04:57:10;;;;;;;16.35;7.60;;;;;;;;;;6128447;23;20026;-79
2022/07/04 04:59:38;;;;;;;14.88;7.50;;;;;;;;;;6132395;23;20232;-79
2022/07/04 05:02:05;;;;;;;15.25;7.85;;;;;;;;;;6132522;23;20046;-81
2022/07/04 05:04:32;;;;;;;11.80;7.03;;;;;;;;;;6131562;23;20029;-80
2022/07/04 05:06:59;;;;;;;13.68;7.32;;;;;;;;;;6129703;23;20854;-82
2022/07/04 05:09:27;;;;;;;14.80;6.57;;;;;;;;;;6129599;23;20109;-79
2022/07/04 05:11:54;;;;;;;16.10;8.10;;;;;;;;;;6129818;23;20133;-79
2022/07/04 05:14:21;;;;;;;15.40;6.65;;;;;;;;;;6130943;23;20469;-80
2022/07/04 05:16:48;;;;;;;17.55;6.90;;;;;;;;;;6130284;23;20117;-80
2022/07/04 05:19:15;;;;;;;13.63;6.70;;;;;;;;;;6129978;23;20830;-80
2022/07/04 05:21:42;;;;;;;13.32;6.30;;;;;;;;;;6129326;23;20042;-79
2022/07/04 05:24:11;;;;;;;10.18;5.63;;;;;;;;;;6128781;23;20041;-80
2022/07/04 05:26:38;;;;;;;9.43;5.35;;;;;;;;;;6128768;23;20019;-81
2022/07/04 05:29:05;;;;;;;16.55;5.90;;;;;;;;;;6129633;23;20022;-80
2022/07/04 05:31:32;;;;;;;11.25;5.05;;;;;;;;;;6128967;23;20877;-80
2022/07/04 05:33:59;;;;;;;8.23;4.72;;;;;;;;;;6130799;23;20097;-81
2022/07/04 05:36:30;;;;;;;11.85;4.88;;;;;;;;;;6130006;23;20026;-79
2022/07/04 05:39:00;;;;;;;11.18;5.00;;;;;;;;;;6131661;23;20027;-81
2022/07/04 05:41:27;;;;;;;17.48;5.18;;;;;;;;;;6132031;23;20026;-81
2022/07/04 05:43:54;;;;;;;14.68;5.05;;;;;;;;;;6132933;23;20018;-81
2022/07/04 05:46:25;;;;;;;12.80;4.70;;;;;;;;;;6130854;23;20019;-81
2022/07/04 05:48:52;;;;;;;14.95;5.10;;;;;;;;;;6132419;23;20786;-81
2022/07/04 05:51:22;;;;;;;15.48;5.22;;;;;;;;;;6129919;23;20037;-81
2022/07/04 05:53:50;;;;;;;11.95;4.53;;;;;;;;;;6129179;23;20025;-82
2022/07/04 05:56:17;;;;;;;12.20;4.82;;;;;;;;;;6128171;23;20018;-81
2022/07/04 05:58:44;;;;;;;9.65;4.50;;;;;;;;;;6128569;23;20082;-81
2022/07/04 06:01:12;;;;;;;13.45;4.32;;;;;;;;;;6127846;23;20042;-81
2022/07/04 06:03:39;;;;;;;10.50;4.28;;;;;;;;;;6130692;23;20093;-81
2022/07/04 06:06:07;;;;;;;10.48;4.03;;;;;;;;;;6130390;23;20070;-80
2022/07/04 06:08:34;;;;;;;11.15;4.22;;;;;;;;;;6137147;23;20033;-80
2022/07/04 06:11:01;;;;;;;10.32;4.03;;;;;;;;;;6138245;23;20812;-80
2022/07/04 06:13:28;;;;;;;11.32;4.32;;;;;;;;;;6137185;23;20090;-79
2022/07/04 06:15:56;;;;;;;13.68;4.45;;;;;;;;;;6138668;23;20055;-80
2022/07/04 06:18:24;;;;;;;9.68;4.00;;;;;;;;;;6140024;23;20101;-81
2022/07/04 06:20:51;;;;;;;9.55;4.43;;;;;;;;;;6138503;23;20105;-80
2022/07/04 06:23:18;;;;;;;14.05;4.47;;;;;;;;;;6139174;23;20019;-80
2022/07/04 06:25:45;;;;;;;9.07;4.20;;;;;;;;;;6139784;23;20015;-80
2022/07/04 06:28:12;;;;;;;11.15;3.88;;;;;;;;;;6138400;23;20015;-80
2022/07/04 06:30:59;;;;;;;11.73;3.90;;;;;;;;;;6141220;23;20023;-82
2022/07/04 06:33:26;;;;;;;12.30;4.00;;;;;;;;;;6140752;23;20053;-79
2022/07/04 06:35:58;;;;;;;12.32;3.80;;;;;;;;;;6139436;23;20022;-79
2022/07/04 06:38:27;;;;;;;10.75;3.83;;;;;;;;;;6138068;23;20038;-79
2022/07/04 06:40:55;;;;;;;10.73;3.63;;;;;;;;;;6137199;23;20034;-79
2022/07/04 06:43:22;;;;;;;9.95;3.80;;;;;;;;;;6138081;23;20026;-80
2022/07/04 06:45:53;;;;;;;14.02;3.92;;;;;;;;;;6137381;23;20071;-78
2022/07/04 06:48:21;;;;;;;10.55;3.80;;;;;;;;;;6139975;23;20464;-81
2022/07/04 06:50:48;;;;;;;9.32;3.78;;;;;;;;;;6137582;23;20023;-80
2022/07/04 06:53:15;;;;;;;13.63;3.60;;;;;;;;;;6138143;23;20029;-80
2022/07/04 06:55:42;;;;;;;11.93;3.85;;;;;;;;;;6138600;23;20102;-79
2022/07/04 06:58:10;;;;;;;11.65;4.05;;;;;;;;;;6138996;23;20771;-80
2022/07/04 07:00:38;;;;;;;10.43;4.00;;;;;;;;;;6139934;23;20019;-82
2022/07/04 07:03:07;;;;;;;14.90;4.30;;;;;;;;;;6136655;23;20036;-79
2022/07/04 07:05:36;;;;;;;12.13;3.80;;;;;;;;;;6139260;23;20022;-79
2022/07/04 07:08:24;;;;;;;12.70;4.15;;;;;;;;;;6138026;23;20074;-80
2022/07/04 07:10:51;;;;;;;10.57;4.38;;;;;;;;;;6137023;23;20010;-79
2022/07/04 07:13:18;;;;;;;12.60;3.88;;;;;;;;;;6138369;23;20684;-82
2022/07/04 07:15:46;;;;;;;11.52;3.83;;;;;;;;;;6136737;23;20830;-80
2022/07/04 07:18:13;;;;;;;9.32;3.70;;;;;;;;;;6135829;23;20026;-83
2022/07/04 07:20:40;;;;;;;16.23;3.67;;;;;;;;;;6135994;23;20023;-82
2022/07/04 07:23:08;;;;;;;17.05;3.70;;;;;;;;;;6138135;23;20014;-79
2022/07/04 07:25:35;;;;;;;14.60;4.00;;;;;;;;;;6136351;23;20022;-80
2022/07/04 07:28:02;;;;;;;9.27;3.38;;;;;;;;;;6138216;23;20023;-80
2022/07/04 07:30:29;;;;;;;14.00;3.20;;;;;;;;;;6134072;23;20439;-80
2022/07/04 07:32:57;;;;;;;12.80;3.20;;;;;;;;;;6134949;23;20026;-79
2022/07/04 07:35:24;;;;;;;10.15;3.50;;;;;;;;;;6136614;23;20030;-80
2022/07/04 07:37:51;;;;;;;11.20;3.53;;;;;;;;;;6136186;23;20043;-81
2022/07/04 07:40:22;;;;;;;8.73;3.35;;;;;;;;;;6137388;23;20389;-80
2022/07/04 07:42:49;;;;;;;13.20;3.05;;;;;;;;;;6137565;23;20019;-80
2022/07/04 07:45:19;;;;;;;8.55;2.95;;;;;;;;;;6138086;23;20033;-83
2022/07/04 07:47:46;;;;;;;9.93;3.20;;;;;;;;;;6138011;23;20011;-81
2022/07/04 07:50:13;;;;;;;7.00;2.88;;;;;;;;;;6136867;23;20034;-80
2022/07/04 07:52:43;;;;;;;11.77;3.03;;;;;;;;;;6139125;23;20111;-82
2022/07/04 07:55:13;;;;;;;9.03;2.83;;;;;;;;;;6139234;23;20047;-81
2022/07/04 07:57:40;;;;;;;8.02;2.75;;;;;;;;;;6138280;23;20069;-81
2022/07/04 08:00:15;;;;;;;8.32;2.20;;;;;;;;;;6140962;23;20018;-80
2022/07/04 08:05:57;;;;;;;9.25;2.25;;;;;;;;;;6138776;23;20026;-80
2022/07/04 08:08:33;;;;;;;7.20;2.40;;;;;;;;;;6135562;23;20030;-81
2022/07/04 08:11:14;;;;;;;7.00;2.55;;;;;;;;;;6132288;23;20030;-81
2022/07/04 08:13:41;;;;;;;9.20;2.00;;;;;;;;;;6133969;23;20843;-82
2022/07/04 08:16:33;;;;;;;8.07;2.10;;;;;;;;;;6139696;23;20053;-81
2022/07/04 08:19:20;;;;;;;7.72;2.03;;;;;;;;;;6137656;23;20030;-82
2022/07/04 08:21:50;;;;;;;7.50;2.30;;;;;;;;;;6137832;23;20191;-81
2022/07/04 08:24:46;;;;;;;17.17;2.38;;;;;;;;;;6134928;23;20026;-81
2022/07/04 08:27:17;;;;;;;5.82;2.03;;;;;;;;;;6134822;23;20847;-81
2022/07/04 08:30:05;;;;;;;8.35;2.10;;;;;;;;;;6117225;23;20093;-80
2022/07/04 08:32:40;;;;;;;4.38;1.60;;;;;;;;;;6134594;23;20101;-80
2022/07/04 08:35:12;;;;;;;;;;;;;;;;;;6135098;23;20689;-83
2022/07/04 08:37:42;;;;;;;8.57;1.90;;;;;;;;;;6132966;23;41697;-81
2022/07/04 08:40:12;;;;;;;5.63;1.40;;;;;;;;;;6134941;23;20018;-81
2022/07/04 08:42:48;;;;;;;5.72;2.00;;;;;;;;;;6134038;23;20478;-80
2022/07/04 08:45:27;;;;;;;6.15;2.08;;;;;;;;;;6134627;23;20078;-81
2022/07/04 08:48:00;;;;;;;5.28;1.88;;;;;;;;;;6135179;23;20122;-80
2022/07/04 08:50:31;;;;;;;4.93;1.90;;;;;;;;;;6134726;23;20093;-81
2022/07/04 08:53:31;;;;;;;4.75;1.80;;;;;;;;;;6134123;23;20027;-80
2022/07/04 08:58:51;;;;;;;7.30;1.88;;;;;;;;;;6135988;23;20694;-81
2022/07/04 09:01:25;;;;;;;5.18;2.10;;;;;;;;;;6135779;23;20026;-80
2022/07/04 09:04:07;;;;;;;7.03;2.00;;;;;;;;;;6135458;23;20376;-81
2022/07/04 09:06:57;;;;;;;14.27;1.88;;;;;;;;;;6134547;23;20090;-80
2022/07/04 09:09:48;;;;;;;4.35;1.40;;;;;;;;;;6134807;23;20796;-80
2022/07/04 09:12:19;;;;;;;5.57;1.50;;;;;;;;;;6133861;23;20022;-81
2022/07/04 09:15:22;;;;;;;4.20;1.30;;;;;;;;;;6131503;23;20018;-80
2022/07/04 09:17:51;;;;;;;9.38;1.70;;;;;;;;;;6133324;23;20022;-80
2022/07/04 09:20:23;;;;;;;5.13;1.50;;;;;;;;;;6132414;23;20014;-80
2022/07/04 09:23:01;;;;;;;4.55;1.50;;;;;;;;;;6130830;23;20201;-80
2022/07/04 09:25:47;;;;;;;4.28;1.52;;;;;;;;;;6132511;23;20130;-81
2022/07/04 09:28:28;;;;;;;7.18;1.77;;;;;;;;;;6131864;23;20035;-80
2022/07/04 09:31:16;;;;;;;5.13;1.45;;;;;;;;;;6132997;23;20117;-81
2022/07/04 09:34:03;;;;;;;6.32;1.30;;;;;;;;;;6129165;23;20951;-80
2022/07/04 09:36:41;;;;;;;6.07;1.35;;;;;;;;;;6132758;23;20022;-80
2022/07/04 09:39:37;;;;;;;4.43;1.40;;;;;;;;;;6135602;23;20066;-81
2022/07/04 09:42:11;;;;;;;5.45;1.63;;;;;;;;;;6132217;23;20124;-80
2022/07/04 09:44:50;;;;;;;3.35;1.33;;;;;;;;;;6131234;23;20034;-82
2022/07/04 09:47:27;;;;;;;4.82;1.40;;;;;;;;;;6131770;23;20030;-81
2022/07/04 09:50:14;;;;;;;4.72;1.63;;;;;;;;;;6131729;23;20090;-81
2022/07/04 09:53:20;;;;;;;5.95;1.50;;;;;;;;;;6129827;23;20046;-81
2022/07/04 09:55:52;;;;;;;4.97;1.45;;;;;;;;;;6104806;23;20197;-80
2022/07/04 09:58:19;;;;;;;4.70;1.80;;;;;;;;;;6129331;23;20564;-82
2022/07/04 10:00:51;;;;;;;5.30;1.50;;;;;;;;;;6130626;23;20014;-80
2022/07/04 10:03:27;;;;;;;7.32;1.70;;;;;;;;;;6106681;23;20886;-81
2022/07/04 10:06:09;;;;;;;9.95;1.67;;;;;;;;;;6106895;23;20677;-80
2022/07/04 10:08:42;;;;;;;5.28;1.70;;;;;;;;;;6108367;23;20022;-80
2022/07/04 10:11:11;;;;;;;4.93;2.00;;;;;;;;;;6106010;23;20020;-83
2022/07/04 10:13:49;;;;;;;5.28;1.55;;;;;;;;;;6107992;23;20077;-80
2022/07/04 10:16:19;;;;;;;3.95;1.50;;;;;;;;;;6130794;23;20110;-82
2022/07/04 10:18:46;;;;;;;4.50;1.73;;;;;;;;;;6130392;23;20049;-81
2022/07/04 10:21:18;;;;;;;5.40;1.63;;;;;;;;;;6131301;23;20608;-81
2022/07/04 10:23:48;;;;;;;2.95;1.25;;;;;;;;;;6131999;23;20026;-81
2022/07/04 10:26:25;;;;;;;4.18;1.73;;;;;;;;;;6131150;23;20030;-81
2022/07/04 10:28:59;;;;;;;5.00;1.75;;;;;;;;;;6129567;23;20069;-80
2022/07/04 10:31:28;;;;;;;7.03;1.58;;;;;;;;;;6134464;23;20772;-81
2022/07/04 10:33:59;;;;;;;5.10;1.77;;;;;;;;;;6135523;23;20022;-80
2022/07/04 10:36:32;;;;;;;3.38;1.50;;;;;;;;;;6133376;23;20015;-81
2022/07/04 10:39:03;;;;;;;5.22;1.50;;;;;;;;;;6135571;23;20029;-80
2022/07/04 10:41:33;;;;;;;5.55;1.73;;;;;;;;;;6133987;23;20815;-80
2022/07/04 10:44:15;;;;;;;2.45;1.52;;;;;;;;;;6135974;23;20102;-81
2022/07/04 10:46:57;;;;;;;6.88;1.90;;;;;;;;;;6135480;23;20054;-81
2022/07/04 10:49:38;;;;;;;6.15;1.98;;;;;;;;;;6134394;23;20057;-80
2022/07/04 10:52:15;;;;;;;6.55;1.58;;;;;;;;;;6133686;23;20030;-81
2022/07/04 10:55:11;;;;;;;2.65;1.50;;;;;;;;;;6133532;23;20105;-80
2022/07/04 10:57:44;;;;;;;5.78;2.08;;;;;;;;;;6131088;23;20015;-81
2022/07/04 11:00:17;;;;;;;4.85;1.63;;;;;;;;;;6132864;23;20453;-80
2022/07/04 11:02:44;;;;;;;1.67;1.25;;;;;;;;;;6132375;23;20031;-81
2022/07/04 11:05:38;;;;;;;3.17;1.30;;;;;;;;;;6131841;23;20022;-81
2022/07/04 11:08:06;;;;;;;2.35;1.40;;;;;;;;;;6132557;23;20102;-80
2022/07/04 11:10:38;;;;;;;2.97;1.40;;;;;;;;;;6132393;23;20014;-81
2022/07/04 11:13:08;;;;;;;2.47;1.30;;;;;;;;;;6131480;23;20023;-81
2022/07/04 11:15:48;;;;;;;4.53;1.55;;;;;;;;;;6130549;23;20018;-81
2022/07/04 11:18:19;;;;;;;4.75;1.30;;;;;;;;;;6129376;23;20429;-81
2022/07/04 11:20:58;;;;;;;2.20;1.23;;;;;;;;;;6131891;23;20819;-81
2022/07/04 11:23:28;;;;;;;2.95;1.30;;;;;;;;;;6131397;23;20026;-81
2022/07/04 11:25:57;;;;;;;2.13;1.20;;;;;;;;;;6130983;23;20026;-81
2022/07/04 11:28:35;;;;;;;2.40;1.40;;;;;;;;;;6130880;23;20026;-81
2022/07/04 11:31:12;;;;;;;3.05;1.27;;;;;;;;;;6131790;23;20555;-81
2022/07/04 11:33:41;;;;;;;3.90;1.45;;;;;;;;;;6130466;23;20918;-81
2022/07/04 11:36:14;;;;;;;2.03;1.10;;;;;;;;;;6131417;23;20018;-82
2022/07/04 11:39:03;;;;;;;3.00;1.27;;;;;;;;;;6133284;23;20027;-80
2022/07/04 11:47:23;;;;;;;2.15;0.90;;;;;;;;;;6120445;23;20117;-82
2022/07/04 11:49:54;;;;;;;1.95;1.02;;;;;;;;;;6133341;23;20073;-81
2022/07/04 11:52:40;;;;;;;2.45;1.10;;;;;;;;;;6131611;23;20886;-80
2022/07/04 11:55:27;;;;;;;1.15;1.00;;;;;;;;;;6130450;23;20023;-81
2022/07/04 11:57:55;;;;;;;1.77;1.00;;;;;;;;;;6130065;23;20891;-80
2022/07/04 12:00:27;;;;;;;2.05;1.20;;;;;;;;;;6128790;23;20042;-81
2022/07/04 12:02:58;;;;;;;4.18;1.15;;;;;;;;;;6128814;23;20054;-81
2022/07/04 12:05:30;;;;;;;2.47;1.00;;;;;;;;;;6130113;23;20075;-81
2022/07/04 12:08:01;;;;;;;4.03;1.25;;;;;;;;;;6129348;23;20090;-81
2022/07/04 12:10:57;;;;;;;2.35;1.00;;;;;;;;;;6128126;23;20034;-81
2022/07/04 12:13:30;;;;;;;3.45;1.20;;;;;;;;;;6126893;23;20027;-83
2022/07/04 12:15:58;;;;;;;3.05;1.20;;;;;;;;;;6129597;23;20113;-81
2022/07/04 12:18:32;;;;;;;6.38;1.30;;;;;;;;;;6128571;23;20053;-81
2022/07/04 12:21:21;;;;;;;2.40;1.00;;;;;;;;;;6129140;23;20053;-81
2022/07/04 12:23:54;;;;;;;2.88;1.20;;;;;;;;;;6125395;23;20081;-81
2022/07/04 12:26:47;;;;;;;4.88;1.10;;;;;;;;;;6129394;23;20018;-81
2022/07/04 12:29:15;;;;;;;;;;;;;;;;;;6129964;23;20117;-82
2022/07/04 12:34:51;;;;;;;1.75;1.00;;;;;;;;;;6133644;23;20524;-82
2022/07/04 12:37:42;;;;;;;4.75;1.10;;;;;;;;;;6135673;23;20049;-81
2022/07/04 12:40:12;;;;;;;2.95;1.35;;;;;;;;;;6129126;23;20057;-81
2022/07/04 12:42:45;;;;;;;3.35;1.05;;;;;;;;;;6132052;23;20023;-83
2022/07/04 12:45:17;;;;;;;3.63;1.30;;;;;;;;;;6131616;23;20025;-81
2022/07/04 12:48:04;;;;;;;2.55;1.00;;;;;;;;;;6130512;23;20057;-81
2022/07/04 12:50:31;;;;;;;2.92;1.02;;;;;;;;;;6128076;23;20566;-81
2022/07/04 12:53:28;;;;;;;1.77;1.20;;;;;;;;;;6128278;23;20030;-81
2022/07/04 12:56:00;;;;;;;1.85;1.15;;;;;;;;;;6130012;23;20062;-82
2022/07/04 12:58:35;;;;;;;2.90;1.08;;;;;;;;;;6127157;23;20033;-81
2022/07/04 13:01:03;;;;;;;2.10;1.00;;;;;;;;;;6130942;23;20026;-81
2022/07/04 13:03:32;;;;;;;5.32;1.10;;;;;;;;;;6129902;23;20026;-81
2022/07/04 13:06:03;;;;;;;2.42;1.25;;;;;;;;;;6129074;23;20014;-81
2022/07/04 13:08:39;;;;;;;4.07;1.30;;;;;;;;;;6130446;23;20022;-81
2022/07/04 13:13:54;;;;;;;6.20;1.20;;;;;;;;;;6131043;23;20037;-81
2022/07/04 13:16:28;;;;;;;2.03;1.15;;;;;;;;;;6131025;23;20019;-80
2022/07/04 13:19:01;;;;;;;3.10;1.00;;;;;;;;;;6129763;23;20049;-81
2022/07/04 13:21:31;;;;;;;5.85;1.20;;;;;;;;;;6130961;23;20042;-81
2022/07/04 13:23:58;;;;;;;2.85;1.27;;;;;;;;;;6130495;23;20030;-81
2022/07/04 13:26:27;;;;;;;1.90;0.95;;;;;;;;;;6127668;23;20050;-81
2022/07/04 13:29:00;;;;;;;3.08;1.35;;;;;;;;;;6131644;23;20832;-81
2022/07/04 13:31:41;;;;;;;4.95;1.23;;;;;;;;;;6129568;23;20863;-81
2022/07/04 13:34:11;;;;;;;3.63;1.10;;;;;;;;;;6127798;23;20046;-81
2022/07/04 13:36:43;;;;;;;4.18;1.10;;;;;;;;;;6126632;23;20185;-82
2022/07/04 13:39:21;;;;;;;2.40;1.10;;;;;;;;;;6128487;23;20072;-82
2022/07/04 13:42:56;;;;;;;4.53;1.30;;;;;;;;;;6129865;23;20503;-81
2022/07/04 13:45:18;;;;;;;2.05;0.93;;;;;;;;;;6128967;23;20110;-81
2022/07/04 13:47:49;;;;;;;;;;;;;;;;;;6127903;23;20026;-84
2022/07/04 13:50:25;;;;;;;5.05;1.30;;;;;;;;;;6125630;23;42583;-83
2022/07/04 13:52:58;;;;;;;2.85;1.10;;;;;;;;;;6127817;23;20346;-81
2022/07/04 13:55:25;;;;;;;4.32;1.00;;;;;;;;;;6127334;23;20026;-82
2022/07/04 13:57:55;;;;;;;4.22;1.20;;;;;;;;;;6126957;23;20023;-82
2022/07/04 14:00:24;;;;;;;3.05;1.00;;;;;;;;;;6129070;23;20469;-82
2022/07/04 14:02:59;;;;;;;3.90;1.10;;;;;;;;;;6130765;23;20066;-81
2022/07/04 14:05:35;;;;;;;1.90;0.90;;;;;;;;;;6128168;23;20069;-82
2022/07/04 14:08:12;;;;;;;1.70;1.00;;;;;;;;;;6127407;23;20026;-82
2022/07/04 14:10:44;;;;;;;2.67;1.27;;;;;;;;;;6129856;23;20802;-82
2022/07/04 14:13:11;;;;;;;2.45;1.10;;;;;;;;;;6130771;23;20026;-81
2022/07/04 14:15:38;;;;;;;5.07;0.85;;;;;;;;;;6129011;23;20033;-81
2022/07/04 14:18:10;;;;;;;3.38;1.10;;;;;;;;;;6128750;23;20023;-82
2022/07/04 14:20:50;;;;;;;2.38;1.10;;;;;;;;;;6128452;23;20014;-82
2022/07/04 14:26:14;;;;;;;3.25;1.17;;;;;;;;;;6131049;23;20033;-81
2022/07/04 14:28:44;;;;;;;1.52;0.93;;;;;;;;;;6128500;23;20061;-82
2022/07/04 14:31:11;;;;;;;3.85;1.30;;;;;;;;;;6128960;23;20026;-82
2022/07/04 14:33:38;;;;;;;3.28;1.10;;;;;;;;;;6129065;23;20019;-82
2022/07/04 14:36:09;;;;;;;2.42;1.25;;;;;;;;;;6129849;23;20027;-82
2022/07/04 14:38:41;;;;;;;3.15;1.13;;;;;;;;;;6131326;23;20030;-82
2022/07/04 14:41:14;;;;;;;2.40;0.95;;;;;;;;;;6130153;23;20057;-81
2022/07/04 14:43:47;;;;;;;4.90;1.27;;;;;;;;;;6130931;23;20022;-81
2022/07/04 14:46:15;;;;;;;1.33;1.00;;;;;;;;;;6134687;23;20006;-81
2022/07/04 14:48:45;;;;;;;3.03;1.30;;;;;;;;;;6132492;23;20046;-81
2022/07/04 14:51:12;;;;;;;3.40;1.20;;;;;;;;;;6131299;23;20486;-81
2022/07/04 14:53:40;;;;;;;4.32;1.20;;;;;;;;;;6131827;23;20026;-83
2022/07/04 14:56:08;;;;;;;2.78;1.25;;;;;;;;;;6132742;23;20007;-81
2022/07/04 14:58:37;;;;;;;3.58;1.10;;;;;;;;;;6132126;23;20026;-81
2022/07/04 15:01:13;;;;;;;1.92;1.10;;;;;;;;;;6131787;23;20527;-83
2022/07/04 15:03:40;;;;;;;2.88;1.20;;;;;;;;;;6133077;23;20022;-81
2022/07/04 15:06:07;;;;;;;4.28;1.27;;;;;;;;;;6133890;23;20736;-81
2022/07/04 15:08:35;;;;;;;2.60;1.10;;;;;;;;;;6131321;23;20082;-82
2022/07/04 15:11:02;;;;;;;4.00;1.17;;;;;;;;;;6132629;23;20034;-82
2022/07/04 15:13:29;;;;;;;2.67;1.10;;;;;;;;;;6123681;23;20022;-81
2022/07/04 15:15:57;;;;;;;1.88;1.00;;;;;;;;;;6126450;23;20042;-81
2022/07/04 15:18:44;;;;;;;2.60;0.90;;;;;;;;;;6125555;23;20018;-80
2022/07/04 15:24:13;;;;;;;1.58;0.98;;;;;;;;;;6127780;23;20037;-81
2022/07/04 15:26:41;;;;;;;4.68;1.17;;;;;;;;;;6125448;23;20041;-80
2022/07/04 15:29:08;;;;;;;3.05;1.20;;;;;;;;;;6126367;23;20110;-80
2022/07/04 15:31:40;;;;;;;2.95;1.10;;;;;;;;;;6127982;23;20930;-77